DARAJ65 OPKC-OERF
Flight info
| Callsign | DARAJ65 |
|---|---|
| Flight time | N/A |
| Altitude | FL380 |
| Route | MELO1H MELOM A325 PARET J215 PI J120 BIVIN A791 GIDIL L700 ULDUN T800 NANPA M317 SERDU A453 LVA N570 DURSI B416 IMDAT R784 NANPI G669 KUA B417 BOSID L550 VATIM L768 RAF |
| Aircraft | CL60/M-SADE3FGHIJ3J4J7P2RWXY/HB1D1 |
Departure
| Time | 2026-05-05 22:00 |
|---|---|
| Airport | Jinnah International Airport (OPKC) |
Arrival
| Time | N/A |
|---|---|
| Airport | Rafha Domestic Airport (OERF) |
| Time | Latitude | Longitude | Altitude | Speed | Heading |
|---|---|---|---|---|---|
| 2026-05-05 21:59 | 24.79412 | 67.28916 | 11796 ft | 346 kts | 184° |
| 2026-05-05 22:00 | 24.76952 | 67.28210 | 12667 ft | 358 kts | 206° |
| 2026-05-05 22:00 | 24.74842 | 67.26494 | 13608 ft | 361 kts | 231° |
| 2026-05-05 22:00 | 24.73560 | 67.24026 | 14631 ft | 356 kts | 255° |
| 2026-05-05 22:00 | 24.72891 | 67.21389 | 15604 ft | 357 kts | 258° |
| 2026-05-05 22:01 | 24.72231 | 67.18682 | 16537 ft | 360 kts | 257° |
| 2026-05-05 22:01 | 24.71555 | 67.15922 | 17432 ft | 364 kts | 257° |
| 2026-05-05 22:01 | 24.70856 | 67.13071 | 18367 ft | 366 kts | 257° |
| 2026-05-05 22:01 | 24.70153 | 67.10204 | 19342 ft | 366 kts | 258° |
| 2026-05-05 22:02 | 24.69490 | 67.07322 | 20253 ft | 365 kts | 263° |
| 2026-05-05 22:02 | 24.69448 | 67.04444 | 21101 ft | 359 kts | 281° |
| 2026-05-05 22:02 | 24.70239 | 67.01704 | 21936 ft | 356 kts | 296° |
| 2026-05-05 22:02 | 24.71400 | 66.99097 | 22713 ft | 358 kts | 297° |
| 2026-05-05 22:03 | 24.72594 | 66.96438 | 23473 ft | 360 kts | 297° |
| 2026-05-05 22:03 | 24.73808 | 66.93733 | 24202 ft | 363 kts | 297° |
| 2026-05-05 22:03 | 24.75000 | 66.91075 | 24923 ft | 364 kts | 297° |
| 2026-05-05 22:03 | 24.76213 | 66.88369 | 25594 ft | 366 kts | 297° |
| 2026-05-05 22:04 | 24.77447 | 66.85616 | 26276 ft | 367 kts | 297° |
| 2026-05-05 22:04 | 24.78657 | 66.82917 | 26875 ft | 369 kts | 297° |
| 2026-05-05 22:04 | 24.79970 | 66.80257 | 27455 ft | 371 kts | 305° |
| 2026-05-05 22:04 | 24.81885 | 66.77968 | 27995 ft | 374 kts | 314° |
| 2026-05-05 22:05 | 24.83948 | 66.75797 | 28547 ft | 376 kts | 315° |
| 2026-05-05 22:05 | 24.85990 | 66.73643 | 29073 ft | 377 kts | 315° |
| 2026-05-05 22:05 | 24.88040 | 66.71481 | 29519 ft | 381 kts | 314° |
| 2026-05-05 22:05 | 24.90087 | 66.69321 | 29928 ft | 384 kts | 315° |
| 2026-05-05 22:06 | 24.92109 | 66.67186 | 30302 ft | 387 kts | 314° |
| 2026-05-05 22:06 | 24.94204 | 66.64974 | 30685 ft | 390 kts | 315° |
| 2026-05-05 22:06 | 24.96280 | 66.62780 | 31027 ft | 394 kts | 314° |
| 2026-05-05 22:06 | 24.98406 | 66.60534 | 31382 ft | 396 kts | 314° |
| 2026-05-05 22:07 | 25.00459 | 66.58363 | 31708 ft | 399 kts | 315° |
| 2026-05-05 22:07 | 25.02551 | 66.56100 | 32025 ft | 401 kts | 312° |
| 2026-05-05 22:07 | 25.04434 | 66.53514 | 32344 ft | 402 kts | 304° |
| 2026-05-05 22:07 | 25.05915 | 66.50683 | 32668 ft | 405 kts | 296° |
| 2026-05-05 22:08 | 25.06997 | 66.47652 | 32974 ft | 408 kts | 289° |
| 2026-05-05 22:08 | 25.07767 | 66.44418 | 33273 ft | 411 kts | 285° |
| 2026-05-05 22:08 | 25.08496 | 66.41101 | 33539 ft | 414 kts | 285° |
| 2026-05-05 22:08 | 25.09226 | 66.37786 | 33926 ft | 414 kts | 285° |
| 2026-05-05 22:09 | 25.09938 | 66.34549 | 34372 ft | 411 kts | 285° |
| 2026-05-05 22:09 | 25.10636 | 66.31377 | 34821 ft | 410 kts | 284° |
| 2026-05-05 22:09 | 25.11363 | 66.28077 | 35227 ft | 409 kts | 284° |
| 2026-05-05 22:09 | 25.12093 | 66.24760 | 35647 ft | 408 kts | 284° |
| 2026-05-05 22:10 | 25.12811 | 66.21493 | 36033 ft | 407 kts | 284° |
| 2026-05-05 22:10 | 25.13524 | 66.18248 | 36326 ft | 407 kts | 284° |
| 2026-05-05 22:10 | 25.14254 | 66.14924 | 36587 ft | 408 kts | 284° |
| 2026-05-05 22:10 | 25.14968 | 66.11671 | 36865 ft | 408 kts | 284° |
| 2026-05-05 22:11 | 25.15683 | 66.08407 | 37156 ft | 408 kts | 284° |
| 2026-05-05 22:11 | 25.16396 | 66.05149 | 37434 ft | 408 kts | 284° |
| 2026-05-05 22:11 | 25.17127 | 66.01810 | 37717 ft | 407 kts | 284° |
| 2026-05-05 22:12 | 25.18551 | 65.95292 | 37774 ft | 412 kts | 284° |
| 2026-05-05 22:12 | 25.19832 | 65.89414 | 37770 ft | 418 kts | 284° |
| 2026-05-05 22:13 | 25.21114 | 65.83519 | 37768 ft | 423 kts | 284° |
| 2026-05-05 22:13 | 25.22400 | 65.77595 | 37780 ft | 426 kts | 284° |
| 2026-05-05 22:14 | 25.23693 | 65.71627 | 37786 ft | 426 kts | 284° |
| 2026-05-05 22:14 | 25.24985 | 65.65651 | 37784 ft | 425 kts | 284° |
| 2026-05-05 22:15 | 25.26298 | 65.59566 | 37784 ft | 424 kts | 284° |
| 2026-05-05 22:15 | 25.27590 | 65.53567 | 37788 ft | 424 kts | 284° |
| 2026-05-05 22:16 | 25.28883 | 65.47551 | 37792 ft | 424 kts | 284° |
| 2026-05-05 22:16 | 25.30188 | 65.41461 | 37793 ft | 424 kts | 284° |
| 2026-05-05 22:17 | 25.31517 | 65.35247 | 37793 ft | 423 kts | 284° |
| 2026-05-05 22:17 | 25.32871 | 65.28901 | 37788 ft | 423 kts | 284° |
| 2026-05-05 22:18 | 25.34238 | 65.22482 | 37805 ft | 423 kts | 283° |
| 2026-05-05 22:18 | 25.35604 | 65.16049 | 37798 ft | 422 kts | 284° |
| 2026-05-05 22:19 | 25.37028 | 65.09328 | 37788 ft | 422 kts | 284° |
| 2026-05-05 22:19 | 25.38416 | 65.02761 | 37792 ft | 422 kts | 284° |
| 2026-05-05 22:20 | 25.39836 | 64.96028 | 37779 ft | 422 kts | 284° |
| 2026-05-05 22:20 | 25.41251 | 64.89303 | 37789 ft | 423 kts | 284° |
| 2026-05-05 22:21 | 25.41912 | 64.82448 | 37788 ft | 427 kts | 269° |
| 2026-05-05 22:21 | 25.41345 | 64.75348 | 37801 ft | 427 kts | 267° |
| 2026-05-05 22:22 | 25.40747 | 64.68358 | 37826 ft | 428 kts | 266° |
| 2026-05-05 22:22 | 25.40130 | 64.61172 | 37822 ft | 428 kts | 267° |
| 2026-05-05 22:23 | 25.39569 | 64.54658 | 37830 ft | 429 kts | 266° |
| 2026-05-05 22:23 | 25.39019 | 64.48302 | 37842 ft | 429 kts | 266° |
| 2026-05-05 22:24 | 25.38448 | 64.41712 | 37821 ft | 429 kts | 266° |
| 2026-05-05 22:24 | 25.37882 | 64.35223 | 37816 ft | 429 kts | 266° |
| 2026-05-05 22:25 | 25.37313 | 64.28741 | 37799 ft | 430 kts | 266° |
| 2026-05-05 22:25 | 25.36760 | 64.22456 | 37796 ft | 430 kts | 266° |
| 2026-05-05 22:26 | 25.36221 | 64.16367 | 37799 ft | 430 kts | 266° |
| 2026-05-05 22:26 | 25.35673 | 64.10193 | 37793 ft | 430 kts | 266° |
| 2026-05-05 22:27 | 25.35088 | 64.03644 | 37801 ft | 430 kts | 266° |
| 2026-05-05 22:27 | 25.34519 | 63.97301 | 37800 ft | 430 kts | 266° |
| 2026-05-05 22:28 | 25.33943 | 63.90912 | 37801 ft | 431 kts | 266° |
| 2026-05-05 22:28 | 25.33365 | 63.84520 | 37795 ft | 432 kts | 266° |
| 2026-05-05 22:29 | 25.32789 | 63.78199 | 37800 ft | 432 kts | 266° |
| 2026-05-05 22:29 | 25.32141 | 63.71114 | 37797 ft | 432 kts | 266° |
| 2026-05-05 22:30 | 25.31505 | 63.64189 | 37796 ft | 432 kts | 266° |
| 2026-05-05 22:30 | 25.30854 | 63.57149 | 37790 ft | 432 kts | 266° |
| 2026-05-05 22:31 | 25.30224 | 63.50358 | 37794 ft | 432 kts | 266° |
| 2026-05-05 22:31 | 25.29580 | 63.43458 | 37790 ft | 432 kts | 266° |
| 2026-05-05 22:32 | 25.28935 | 63.36580 | 37789 ft | 432 kts | 266° |
| 2026-05-05 22:32 | 25.28870 | 63.29573 | 37787 ft | 431 kts | 272° |
| 2026-05-05 22:33 | 25.29040 | 63.22613 | 37788 ft | 431 kts | 272° |
| 2026-05-05 22:33 | 25.29206 | 63.15589 | 37788 ft | 431 kts | 272° |
| 2026-05-05 22:34 | 25.29365 | 63.08604 | 37787 ft | 431 kts | 272° |
| 2026-05-05 22:34 | 25.29519 | 63.01706 | 37786 ft | 432 kts | 272° |
| 2026-05-05 22:35 | 25.29670 | 62.94726 | 37790 ft | 433 kts | 272° |
| 2026-05-05 22:35 | 25.29818 | 62.87703 | 37793 ft | 433 kts | 272° |
| 2026-05-05 22:36 | 25.29963 | 62.80860 | 37796 ft | 432 kts | 272° |
| 2026-05-05 22:36 | 25.30109 | 62.73907 | 37802 ft | 432 kts | 272° |
| 2026-05-05 22:37 | 25.30251 | 62.66942 | 37797 ft | 431 kts | 272° |
| 2026-05-05 22:37 | 25.30389 | 62.60080 | 37790 ft | 431 kts | 272° |
| 2026-05-05 22:38 | 25.30257 | 62.53230 | 37784 ft | 433 kts | 264° |
| 2026-05-05 22:38 | 25.28583 | 62.46464 | 37785 ft | 436 kts | 252° |
| 2026-05-05 22:39 | 25.26501 | 62.40173 | 37785 ft | 436 kts | 252° |
| 2026-05-05 22:39 | 25.24306 | 62.33540 | 37786 ft | 437 kts | 252° |
| 2026-05-05 22:40 | 25.22178 | 62.27119 | 37789 ft | 438 kts | 252° |
| 2026-05-05 22:40 | 25.19906 | 62.20272 | 37788 ft | 438 kts | 252° |
| 2026-05-05 22:41 | 25.17602 | 62.13331 | 37777 ft | 438 kts | 252° |
| 2026-05-05 22:41 | 25.15337 | 62.06503 | 37772 ft | 438 kts | 252° |
| 2026-05-05 22:42 | 25.13042 | 61.99596 | 37783 ft | 437 kts | 252° |
| 2026-05-05 22:42 | 25.10775 | 61.92787 | 37789 ft | 438 kts | 252° |
| 2026-05-05 22:43 | 25.08485 | 61.85916 | 37786 ft | 439 kts | 252° |
| 2026-05-05 22:43 | 25.06825 | 61.78922 | 37788 ft | 435 kts | 264° |
| 2026-05-05 22:44 | 25.06856 | 61.71659 | 37786 ft | 435 kts | 274° |
| 2026-05-05 22:44 | 25.07292 | 61.64367 | 37784 ft | 434 kts | 274° |
| 2026-05-05 22:45 | 25.07718 | 61.57169 | 37782 ft | 434 kts | 274° |
| 2026-05-05 22:45 | 25.08174 | 61.49881 | 37782 ft | 433 kts | 274° |
| 2026-05-05 22:46 | 25.08641 | 61.42685 | 37784 ft | 433 kts | 274° |
| 2026-05-05 22:46 | 25.09110 | 61.35403 | 37787 ft | 433 kts | 274° |
| 2026-05-05 22:47 | 25.09563 | 61.28305 | 37784 ft | 433 kts | 274° |
| 2026-05-05 22:47 | 25.10024 | 61.21049 | 37782 ft | 433 kts | 274° |
| 2026-05-05 22:48 | 25.10477 | 61.13849 | 37783 ft | 433 kts | 274° |
| 2026-05-05 22:48 | 25.10928 | 61.06616 | 37783 ft | 432 kts | 274° |
| 2026-05-05 22:49 | 25.11373 | 60.99432 | 37788 ft | 432 kts | 274° |
| 2026-05-05 22:49 | 25.11815 | 60.92247 | 37786 ft | 431 kts | 274° |
| 2026-05-05 22:50 | 25.12252 | 60.85079 | 37789 ft | 431 kts | 274° |
| 2026-05-05 22:50 | 25.12684 | 60.77931 | 37785 ft | 431 kts | 274° |
| 2026-05-05 22:51 | 25.13113 | 60.70791 | 37786 ft | 432 kts | 274° |
| 2026-05-05 22:51 | 25.13539 | 60.63642 | 37786 ft | 433 kts | 274° |
| 2026-05-05 22:52 | 25.13956 | 60.56438 | 37789 ft | 433 kts | 274° |
| 2026-05-05 22:52 | 25.14367 | 60.49248 | 37785 ft | 433 kts | 274° |
| 2026-05-05 22:53 | 25.14773 | 60.42092 | 37776 ft | 432 kts | 274° |
| 2026-05-05 22:53 | 25.15176 | 60.34930 | 37772 ft | 432 kts | 273° |
| 2026-05-05 22:54 | 25.15572 | 60.27813 | 37780 ft | 433 kts | 273° |
| 2026-05-05 22:54 | 25.15969 | 60.20631 | 37784 ft | 432 kts | 273° |
| 2026-05-05 22:55 | 25.16356 | 60.13505 | 37787 ft | 432 kts | 273° |
| 2026-05-05 22:55 | 25.16731 | 60.06374 | 37787 ft | 432 kts | 273° |
| 2026-05-05 22:56 | 25.17102 | 59.99271 | 37786 ft | 432 kts | 273° |
| 2026-05-05 22:56 | 25.17473 | 59.92093 | 37786 ft | 433 kts | 273° |
| 2026-05-05 22:57 | 25.17841 | 59.84921 | 37784 ft | 433 kts | 273° |
| 2026-05-05 22:57 | 25.18205 | 59.77740 | 37782 ft | 433 kts | 273° |
| 2026-05-05 22:58 | 25.18561 | 59.70672 | 37780 ft | 433 kts | 273° |
| 2026-05-05 22:58 | 25.18918 | 59.63508 | 37783 ft | 433 kts | 273° |
| 2026-05-05 22:59 | 25.19036 | 59.61122 | 37781 ft | 432 kts | 273° |